createdAt,value
2023-05-05T00:00:23.940Z,235.61
2023-05-05T00:01:23.956Z,236.34
2023-05-05T00:02:24.038Z,235.09
2023-05-05T00:03:24.102Z,236.43
2023-05-05T00:04:24.098Z,237.10
2023-05-05T00:05:24.105Z,235.57
2023-05-05T00:06:24.104Z,234.90
2023-05-05T00:07:24.138Z,231.66
2023-05-05T00:08:24.184Z,232.62
2023-05-05T00:09:24.205Z,233.48
2023-05-05T00:10:24.201Z,233.55
2023-05-05T00:11:24.202Z,233.89
2023-05-05T00:12:24.201Z,234.84
2023-05-05T00:13:24.194Z,235.79
2023-05-05T00:14:24.189Z,237.07
2023-05-05T00:15:24.195Z,235.69
2023-05-05T00:16:24.230Z,235.97
2023-05-05T00:17:24.232Z,237.09
2023-05-05T00:18:24.186Z,238.33
2023-05-05T00:19:24.183Z,238.97
2023-05-05T00:20:24.173Z,237.70
2023-05-05T00:21:24.193Z,237.91
2023-05-05T00:22:24.172Z,237.13
2023-05-05T00:23:24.179Z,238.85
2023-05-05T00:24:24.160Z,240.25
2023-05-05T00:25:24.189Z,239.36
2023-05-05T00:26:24.227Z,240.01
2023-05-05T00:27:24.271Z,239.56
2023-05-05T00:28:24.321Z,239.30
2023-05-05T00:29:24.371Z,237.74
2023-05-05T00:30:24.405Z,238.50
2023-05-05T00:31:24.491Z,238.23
2023-05-05T00:32:24.503Z,240.79
2023-05-05T00:33:24.544Z,241.07
2023-05-05T00:34:24.590Z,241.43
2023-05-05T00:35:24.639Z,239.48
2023-05-05T00:36:24.693Z,238.56
2023-05-05T00:37:24.741Z,236.50
2023-05-05T00:38:24.776Z,236.19
2023-05-05T00:39:24.833Z,235.08
2023-05-05T00:40:24.883Z,236.45
2023-05-05T00:41:24.925Z,235.90
2023-05-05T00:42:24.991Z,235.43
2023-05-05T00:43:25.028Z,235.40
2023-05-05T00:44:25.072Z,236.18
2023-05-05T00:45:25.133Z,235.48
2023-05-05T00:46:25.211Z,236.59
2023-05-05T00:47:25.261Z,236.34
2023-05-05T00:48:25.316Z,235.41
2023-05-05T00:49:25.358Z,236.70
2023-05-05T00:50:25.391Z,236.60
2023-05-05T00:51:25.458Z,236.25
2023-05-05T00:52:25.519Z,237.91
2023-05-05T00:53:25.561Z,238.05
2023-05-05T00:54:25.621Z,238.26
2023-05-05T00:55:25.672Z,237.15
2023-05-05T00:56:25.722Z,236.75
2023-05-05T00:57:25.786Z,238.74
2023-05-05T00:58:25.820Z,239.88
2023-05-05T00:59:25.887Z,239.54
2023-05-05T01:00:25.948Z,237.99
2023-05-05T01:01:26.016Z,237.29
2023-05-05T01:02:26.182Z,239.41
2023-05-05T01:03:26.190Z,238.79
2023-05-05T01:04:26.166Z,237.60
2023-05-05T01:05:26.209Z,236.82
2023-05-05T01:06:26.274Z,235.04
2023-05-05T01:07:26.269Z,235.06
2023-05-05T01:08:26.273Z,235.16
2023-05-05T01:09:26.270Z,235.20
2023-05-05T01:10:26.560Z,235.09
2023-05-05T01:11:26.281Z,235.16
2023-05-05T01:12:26.274Z,235.41
2023-05-05T01:13:26.260Z,235.80
2023-05-05T01:14:26.253Z,236.15
2023-05-05T01:15:26.247Z,234.92
2023-05-05T01:16:26.261Z,234.30
2023-05-05T01:17:26.266Z,235.85
2023-05-05T01:18:26.249Z,233.43
2023-05-05T01:19:26.244Z,233.78
2023-05-05T01:20:26.233Z,235.52
2023-05-05T01:21:26.286Z,234.75
2023-05-05T01:22:26.356Z,236.67
2023-05-05T01:23:26.403Z,235.89
2023-05-05T01:24:26.463Z,234.36
2023-05-05T01:25:26.508Z,232.51
2023-05-05T01:26:26.505Z,232.53
2023-05-05T01:27:26.507Z,232.69
2023-05-05T01:28:26.510Z,232.86
2023-05-05T01:29:26.503Z,232.75
2023-05-05T01:30:26.504Z,231.42
2023-05-05T01:31:26.514Z,231.59
2023-05-05T01:32:26.506Z,231.81
2023-05-05T01:33:26.500Z,232.85
2023-05-05T01:34:26.496Z,234.92
2023-05-05T01:35:26.491Z,235.63
2023-05-05T01:36:26.505Z,232.84
2023-05-05T01:37:26.571Z,234.45
2023-05-05T01:38:26.654Z,232.29
2023-05-05T01:39:26.698Z,230.43
2023-05-05T01:40:26.750Z,231.35
2023-05-05T01:41:26.829Z,230.95
2023-05-05T01:42:26.893Z,229.94
2023-05-05T01:43:26.957Z,228.51
2023-05-05T01:44:27.015Z,227.78
2023-05-05T01:45:27.070Z,226.02
2023-05-05T01:46:27.120Z,228.11
2023-05-05T01:47:27.216Z,227.69
2023-05-05T01:48:27.262Z,230.71
2023-05-05T01:49:27.365Z,227.66
2023-05-05T01:50:27.421Z,225.99
2023-05-05T01:51:27.457Z,225.66
2023-05-05T01:52:27.509Z,225.95
2023-05-05T01:53:27.566Z,224.82
2023-05-05T01:54:27.767Z,225.96
2023-05-05T01:55:27.730Z,226.45
2023-05-05T01:56:27.751Z,226.43
2023-05-05T01:57:27.823Z,225.39
2023-05-05T01:58:27.877Z,225.76
2023-05-05T01:59:27.929Z,226.87
2023-05-05T02:00:27.999Z,227.46
2023-05-05T02:01:28.111Z,225.94
2023-05-05T02:02:28.198Z,226.33
2023-05-05T02:03:28.221Z,224.15
2023-05-05T02:04:28.236Z,224.88
2023-05-05T02:05:28.305Z,224.39
2023-05-05T02:06:28.381Z,223.01
2023-05-05T02:07:28.452Z,222.64
2023-05-05T02:08:28.508Z,221.16
2023-05-05T02:09:28.578Z,224.86
2023-05-05T02:10:28.647Z,225.09
2023-05-05T02:11:28.696Z,227.79
2023-05-05T02:12:28.762Z,227.79
2023-05-05T02:13:28.843Z,226.84
2023-05-05T02:14:28.908Z,227.14
2023-05-05T02:15:29.017Z,224.81
2023-05-05T02:16:29.046Z,223.03
2023-05-05T02:17:29.082Z,223.09
2023-05-05T02:18:29.045Z,222.88
2023-05-05T02:19:29.026Z,221.90
2023-05-05T02:20:29.032Z,220.51
2023-05-05T02:21:29.021Z,220.71
2023-05-05T02:22:29.015Z,222.05
2023-05-05T02:23:29.023Z,221.28
2023-05-05T02:24:29.015Z,217.92
2023-05-05T02:25:29.013Z,215.38
2023-05-05T02:26:29.020Z,212.36
2023-05-05T02:27:29.103Z,211.73
2023-05-05T02:28:29.127Z,209.79
2023-05-05T02:29:29.179Z,208.48
2023-05-05T02:30:29.243Z,207.62
2023-05-05T02:31:29.338Z,207.21
2023-05-05T02:32:29.436Z,206.48
2023-05-05T02:33:29.416Z,207.09
2023-05-05T02:34:29.413Z,206.54
2023-05-05T02:35:29.419Z,204.89
2023-05-05T02:36:29.423Z,203.21
2023-05-05T02:37:29.425Z,202.19
2023-05-05T02:38:29.416Z,200.37
2023-05-05T02:39:29.417Z,200.00
2023-05-05T02:40:29.418Z,200.51
2023-05-05T02:41:29.404Z,201.60
2023-05-05T02:42:29.425Z,200.19
2023-05-05T02:43:29.459Z,199.04
2023-05-05T02:44:29.506Z,197.09
2023-05-05T02:45:29.549Z,195.17
2023-05-05T02:46:29.613Z,192.13
2023-05-05T02:47:29.625Z,187.77
2023-05-05T02:48:29.645Z,186.07
2023-05-05T02:49:29.613Z,184.42
2023-05-05T02:50:29.614Z,183.39
2023-05-05T02:51:29.647Z,182.98
2023-05-05T02:52:29.685Z,182.33
2023-05-05T02:53:29.679Z,181.48
2023-05-05T02:54:29.687Z,182.57
2023-05-05T02:55:29.734Z,182.38
2023-05-05T02:56:29.728Z,182.34
2023-05-05T02:57:29.739Z,182.61
2023-05-05T02:58:29.797Z,182.00
2023-05-05T02:59:29.777Z,181.78
2023-05-05T03:00:29.801Z,179.14
2023-05-05T03:01:29.860Z,170.68
2023-05-05T03:02:29.844Z,162.67
2023-05-05T03:03:29.932Z,153.00
2023-05-05T03:04:29.801Z,144.46
2023-05-05T03:05:29.815Z,137.92
2023-05-05T03:06:29.821Z,132.56
2023-05-05T03:07:29.824Z,126.88
2023-05-05T03:08:29.840Z,120.78
2023-05-05T03:09:29.854Z,115.72
2023-05-05T03:10:29.861Z,110.27
2023-05-05T03:11:29.856Z,105.72
2023-05-05T03:12:29.891Z,99.54
2023-05-05T03:13:29.867Z,95.91
2023-05-05T03:14:32.776Z,92.18
2023-05-05T03:15:29.871Z,88.31
2023-05-05T03:16:29.891Z,85.05
2023-05-05T03:17:29.915Z,82.42
2023-05-05T03:18:29.895Z,79.61
2023-05-05T03:19:29.906Z,77.72
2023-05-05T03:20:29.918Z,75.14
2023-05-05T03:21:29.908Z,72.19
2023-05-05T03:22:29.913Z,70.28
2023-05-05T03:23:29.939Z,69.31
2023-05-05T03:24:29.935Z,66.43
2023-05-05T03:25:29.940Z,65.26
2023-05-05T03:26:29.944Z,64.30
2023-05-05T03:27:29.949Z,63.10
2023-05-05T03:28:29.970Z,62.22
2023-05-05T03:29:29.975Z,60.91
2023-05-05T03:30:29.964Z,59.73
2023-05-05T03:31:29.997Z,58.29
2023-05-05T03:32:29.996Z,58.72
2023-05-05T03:33:29.996Z,57.62
2023-05-05T03:34:30.011Z,57.33
2023-05-05T03:35:30.027Z,56.98
2023-05-05T03:36:30.028Z,54.92
2023-05-05T03:37:30.060Z,53.19
2023-05-05T03:38:30.061Z,51.32
2023-05-05T03:39:30.067Z,50.84
2023-05-05T03:40:42.922Z,49.18
2023-05-05T03:41:31.097Z,48.47
2023-05-05T03:42:30.104Z,48.85
2023-05-05T03:43:30.104Z,48.70
2023-05-05T03:44:30.111Z,49.18
2023-05-05T03:45:30.165Z,49.13
2023-05-05T03:46:30.159Z,48.86
2023-05-05T03:47:30.165Z,47.96
2023-05-05T03:48:30.162Z,47.66
2023-05-05T03:49:30.164Z,48.29
2023-05-05T03:50:30.185Z,47.47
2023-05-05T03:51:30.194Z,47.35
2023-05-05T03:52:30.196Z,46.98
2023-05-05T03:53:30.224Z,45.87
2023-05-05T03:54:30.218Z,45.14
2023-05-05T03:55:30.234Z,43.91
2023-05-05T03:56:30.309Z,43.80
2023-05-05T03:57:30.393Z,43.09
2023-05-05T03:58:30.471Z,42.92
2023-05-05T03:59:30.540Z,42.91
2023-05-05T04:00:30.613Z,43.31
2023-05-05T04:01:30.687Z,47.42
2023-05-05T04:02:30.839Z,47.88
2023-05-05T04:03:30.994Z,49.29
2023-05-05T04:04:30.913Z,50.95
2023-05-05T04:05:30.966Z,53.75
2023-05-05T04:06:31.054Z,56.60
2023-05-05T04:07:31.105Z,58.67
2023-05-05T04:08:31.188Z,60.50
2023-05-05T04:09:31.259Z,60.96
2023-05-05T04:10:31.346Z,62.15
2023-05-05T04:11:31.404Z,61.80
2023-05-05T04:12:31.483Z,63.07
2023-05-05T04:13:31.566Z,65.30
2023-05-05T04:14:31.629Z,68.26
2023-05-05T04:15:31.633Z,68.32
2023-05-05T04:16:31.668Z,68.72
2023-05-05T04:17:31.680Z,69.81
2023-05-05T04:18:31.667Z,71.02
2023-05-05T04:19:31.668Z,72.65
2023-05-05T04:20:31.705Z,72.72
2023-05-05T04:21:31.706Z,72.14
2023-05-05T04:22:31.708Z,71.32
2023-05-05T04:23:31.715Z,70.20
2023-05-05T04:24:31.713Z,69.63
2023-05-05T04:25:31.746Z,70.07
2023-05-05T04:26:31.806Z,69.69
2023-05-05T04:27:31.864Z,69.13
2023-05-05T04:28:31.917Z,68.55
2023-05-05T04:29:31.970Z,68.89
2023-05-05T04:30:32.014Z,66.57
2023-05-05T04:31:32.096Z,64.89
2023-05-05T04:32:32.067Z,63.47
2023-05-05T04:33:32.030Z,61.51
2023-05-05T04:34:32.036Z,60.05
2023-05-05T04:35:32.049Z,60.59
2023-05-05T04:36:32.052Z,59.67
2023-05-05T04:37:32.078Z,59.19
2023-05-05T04:38:32.125Z,60.82
2023-05-05T04:39:32.089Z,61.31
2023-05-05T04:40:32.097Z,61.53
2023-05-05T04:41:32.111Z,61.56
2023-05-05T04:42:32.125Z,61.63
2023-05-05T04:43:32.125Z,62.20
2023-05-05T04:44:32.132Z,63.86
2023-05-05T04:45:32.132Z,65.59
2023-05-05T04:46:32.173Z,65.69
2023-05-05T04:47:32.222Z,66.85
2023-05-05T04:48:32.171Z,66.12
2023-05-05T04:49:32.162Z,66.09
2023-05-05T04:50:32.182Z,65.56
2023-05-05T04:51:32.201Z,64.59
2023-05-05T04:52:32.218Z,66.01
2023-05-05T04:53:32.218Z,65.47
2023-05-05T04:54:32.246Z,64.24
2023-05-05T04:55:32.234Z,64.18
2023-05-05T04:56:32.250Z,63.12
2023-05-05T04:57:32.258Z,62.81
2023-05-05T04:58:32.262Z,61.36
2023-05-05T04:59:32.280Z,60.31
2023-05-05T05:00:32.281Z,60.32
2023-05-05T05:01:32.317Z,60.36
2023-05-05T05:02:32.378Z,60.43
2023-05-05T05:03:32.439Z,59.94
2023-05-05T05:04:32.330Z,59.56
2023-05-05T05:05:32.329Z,59.41
2023-05-05T05:06:32.333Z,68.65
2023-05-05T05:07:32.368Z,71.28
2023-05-05T05:08:32.346Z,76.42
2023-05-05T05:09:32.344Z,84.54
2023-05-05T05:10:32.382Z,89.47
2023-05-05T05:11:32.439Z,95.68
2023-05-05T05:12:32.519Z,101.85
2023-05-05T05:13:32.544Z,106.08
2023-05-05T05:14:32.580Z,109.69
2023-05-05T05:15:32.622Z,112.70
2023-05-05T05:16:32.687Z,115.86
2023-05-05T05:17:32.678Z,118.28
2023-05-05T05:18:32.705Z,121.18
2023-05-05T05:19:32.695Z,124.31
2023-05-05T05:20:32.708Z,124.45
2023-05-05T05:21:32.710Z,125.18
2023-05-05T05:22:32.714Z,126.98
2023-05-05T05:23:32.731Z,130.32
2023-05-05T05:24:32.724Z,134.85
2023-05-05T05:25:32.727Z,138.25
2023-05-05T05:26:32.741Z,138.91
2023-05-05T05:27:32.761Z,139.03
2023-05-05T05:28:32.766Z,139.75
2023-05-05T05:29:32.761Z,140.85
2023-05-05T05:30:32.749Z,144.18
2023-05-05T05:31:32.801Z,153.23
2023-05-05T05:32:32.816Z,139.60
2023-05-05T05:33:32.749Z,143.41
2023-05-05T05:34:32.759Z,151.48
2023-05-05T05:35:32.753Z,163.04
2023-05-05T05:36:32.767Z,176.15
2023-05-05T05:37:32.782Z,140.15
2023-05-05T05:38:32.762Z,144.09
2023-05-05T05:39:32.762Z,154.65
2023-05-05T05:40:32.907Z,173.86
2023-05-05T05:41:32.799Z,202.49
2023-05-05T05:42:32.796Z,212.92
2023-05-05T05:43:32.772Z,215.65
2023-05-05T05:44:32.797Z,217.82
2023-05-05T05:45:32.771Z,211.95
2023-05-05T05:46:32.812Z,199.88
2023-05-05T05:47:32.822Z,196.63
2023-05-05T05:48:32.812Z,180.82
2023-05-05T05:49:32.834Z,172.45
2023-05-05T05:50:32.817Z,166.21
2023-05-05T05:51:32.825Z,162.54
2023-05-05T05:52:32.835Z,157.42
2023-05-05T05:53:32.849Z,155.74
2023-05-05T05:54:32.892Z,162.79
2023-05-05T05:55:32.882Z,171.71
2023-05-05T05:56:33.005Z,173.32
2023-05-05T05:57:32.886Z,165.57
2023-05-05T05:58:32.852Z,166.10
2023-05-05T05:59:32.881Z,168.95
2023-05-05T06:00:32.869Z,173.66
2023-05-05T06:01:32.859Z,183.67
2023-05-05T06:02:32.957Z,197.97
2023-05-05T06:03:32.913Z,206.15
2023-05-05T06:04:32.923Z,208.14
2023-05-05T06:05:32.873Z,211.51
2023-05-05T06:06:32.889Z,212.15
2023-05-05T06:07:32.849Z,219.56
2023-05-05T06:08:32.843Z,225.19
2023-05-05T06:09:32.834Z,233.55
2023-05-05T06:10:33.227Z,241.36
2023-05-05T06:11:32.832Z,241.51
2023-05-05T06:12:32.888Z,241.97
2023-05-05T06:13:32.885Z,239.12
2023-05-05T06:14:32.837Z,243.98
2023-05-05T06:15:32.836Z,250.82
2023-05-05T06:16:32.986Z,250.00
2023-05-05T06:17:32.818Z,249.34
2023-05-05T06:18:32.822Z,249.38
2023-05-05T06:19:32.793Z,217.18
2023-05-05T06:20:32.801Z,210.09
2023-05-05T06:21:32.819Z,204.59
2023-05-05T06:22:32.831Z,191.91
2023-05-05T06:23:32.820Z,187.45
2023-05-05T06:24:32.805Z,184.60
2023-05-05T06:25:32.794Z,172.97
2023-05-05T06:26:32.799Z,165.11
2023-05-05T06:27:32.809Z,163.30
2023-05-05T06:28:32.807Z,164.11
2023-05-05T06:29:32.799Z,158.54
2023-05-05T06:30:32.852Z,165.45
2023-05-05T06:31:32.852Z,156.19
2023-05-05T06:32:32.845Z,150.98
2023-05-05T06:33:32.845Z,148.33
2023-05-05T06:34:32.810Z,141.27
2023-05-05T06:35:32.806Z,132.24
2023-05-05T06:36:32.889Z,129.48
2023-05-05T06:37:32.814Z,133.27
2023-05-05T06:38:32.845Z,128.96
2023-05-05T06:39:32.841Z,145.75
2023-05-05T06:40:32.869Z,145.91
2023-05-05T06:41:32.846Z,148.00
2023-05-05T06:42:32.853Z,141.21
2023-05-05T06:43:32.873Z,130.47
2023-05-05T06:44:32.848Z,131.41
2023-05-05T06:45:32.859Z,142.40
2023-05-05T06:46:32.863Z,130.19
2023-05-05T06:47:32.907Z,128.41
2023-05-05T06:48:32.901Z,125.63
2023-05-05T06:49:32.870Z,130.74
2023-05-05T06:50:32.881Z,125.34
2023-05-05T06:51:32.902Z,125.72
2023-05-05T06:52:32.868Z,130.79
2023-05-05T06:53:32.910Z,119.20
2023-05-05T06:54:32.890Z,105.34
2023-05-05T06:55:33.043Z,100.80
2023-05-05T06:56:32.909Z,92.28
2023-05-05T06:57:32.916Z,85.55
2023-05-05T06:58:32.934Z,71.17
2023-05-05T06:59:32.935Z,72.29
2023-05-05T07:00:33.001Z,71.98
2023-05-05T07:01:32.954Z,64.76
2023-05-05T07:02:32.977Z,63.21
2023-05-05T07:03:33.010Z,60.45
2023-05-05T07:04:32.979Z,59.88
2023-05-05T07:05:32.992Z,58.13
2023-05-05T07:06:33.015Z,51.64
2023-05-05T07:07:33.012Z,53.99
2023-05-05T07:08:33.015Z,60.85
2023-05-05T07:09:33.025Z,63.61
2023-05-05T07:10:33.041Z,66.62
2023-05-05T07:11:33.180Z,66.71
2023-05-05T07:12:33.095Z,67.39
2023-05-05T07:13:33.078Z,67.07
2023-05-05T07:14:33.079Z,67.07
2023-05-05T07:15:33.100Z,68.47
2023-05-05T07:16:33.222Z,58.95
2023-05-05T07:17:33.130Z,52.25
2023-05-05T07:18:33.223Z,47.92
2023-05-05T07:19:33.131Z,47.09
2023-05-05T07:20:33.148Z,49.77
2023-05-05T07:21:33.132Z,55.84
2023-05-05T07:22:33.138Z,56.08
2023-05-05T07:23:33.177Z,55.91
2023-05-05T07:24:33.175Z,57.31
2023-05-05T07:25:33.155Z,58.79
2023-05-05T07:26:33.184Z,56.15
2023-05-05T07:27:33.268Z,51.22
2023-05-05T07:28:33.192Z,51.11
2023-05-05T07:29:33.198Z,45.60
2023-05-05T07:30:33.209Z,46.18
2023-05-05T07:31:33.228Z,51.53
2023-05-05T07:32:33.215Z,47.62
2023-05-05T07:33:33.202Z,47.06
2023-05-05T07:34:33.220Z,46.05
2023-05-05T07:35:33.220Z,37.32
2023-05-05T07:36:33.226Z,34.96
2023-05-05T07:37:33.222Z,36.50
2023-05-05T07:38:33.230Z,32.18
2023-05-05T07:39:33.244Z,26.99
2023-05-05T07:40:33.245Z,42.70
2023-05-05T07:41:33.243Z,50.11
2023-05-05T07:42:33.273Z,51.39
2023-05-05T07:43:33.317Z,34.47
2023-05-05T07:44:33.304Z,22.98
2023-05-05T07:45:33.369Z,19.97
2023-05-05T07:46:33.528Z,26.66
2023-05-05T07:47:33.612Z,18.98
2023-05-05T07:48:40.479Z,23.25
2023-05-05T07:49:33.592Z,22.26
2023-05-05T07:50:33.604Z,24.20
2023-05-05T07:51:34.589Z,17.35
2023-05-05T07:52:44.969Z,12.61
2023-05-05T07:53:34.562Z,10.05
2023-05-05T07:54:33.687Z,5.86
2023-05-05T07:55:33.558Z,7.98
2023-05-05T07:56:33.567Z,9.06
2023-05-05T07:57:33.639Z,11.00
2023-05-05T07:58:33.579Z,19.53
2023-05-05T07:59:33.692Z,13.70
2023-05-05T08:00:33.580Z,14.06
2023-05-05T08:01:33.605Z,14.12
2023-05-05T08:02:33.679Z,16.15
2023-05-05T08:03:33.876Z,14.09
2023-05-05T08:04:33.675Z,15.13
2023-05-05T08:05:33.622Z,4.21
2023-05-05T08:06:33.576Z,7.29
2023-05-05T08:07:33.603Z,2.12
2023-05-05T08:08:33.601Z,0.00
2023-05-05T08:09:33.592Z,1.11
2023-05-05T08:10:33.654Z,13.41
2023-05-05T08:11:33.620Z,25.36
2023-05-05T08:12:33.747Z,27.38
2023-05-05T08:13:33.680Z,29.33
2023-05-05T08:14:33.608Z,22.98
2023-05-05T08:15:33.672Z,24.44
2023-05-05T08:16:33.790Z,17.47
2023-05-05T08:17:33.752Z,16.69
2023-05-05T08:18:33.624Z,17.20
2023-05-05T08:19:33.599Z,16.33
2023-05-05T08:20:33.655Z,15.40
2023-05-05T08:21:33.601Z,14.46
2023-05-05T08:22:33.688Z,15.31
2023-05-05T08:23:33.632Z,24.84
2023-05-05T08:24:33.649Z,32.82
2023-05-05T08:25:33.637Z,43.28
2023-05-05T08:26:33.643Z,49.75
2023-05-05T08:27:33.650Z,49.71
2023-05-05T08:28:33.658Z,53.18
2023-05-05T08:29:33.667Z,54.93
2023-05-05T08:30:33.689Z,60.80
2023-05-05T08:31:33.779Z,61.87
2023-05-05T08:32:33.761Z,59.18
2023-05-05T08:33:33.683Z,72.56
2023-05-05T08:34:33.690Z,87.62
2023-05-05T08:35:33.713Z,96.86
2023-05-05T08:36:33.756Z,68.73
2023-05-05T08:37:33.772Z,60.10
2023-05-05T08:38:33.805Z,60.27
2023-05-05T08:39:33.873Z,69.55
2023-05-05T08:40:33.959Z,73.32
2023-05-05T08:41:34.034Z,62.30
2023-05-05T08:42:38.600Z,56.01
2023-05-05T08:43:34.026Z,56.42
2023-05-05T08:44:34.060Z,59.20
2023-05-05T08:45:34.015Z,67.04
2023-05-05T08:46:34.105Z,56.81
2023-05-05T08:47:34.167Z,58.49
2023-05-05T08:48:33.992Z,61.44
2023-05-05T08:49:34.034Z,64.55
2023-05-05T08:50:33.983Z,60.66
2023-05-05T08:51:34.039Z,52.56
2023-05-05T08:52:34.054Z,48.04
2023-05-05T08:53:33.963Z,37.44
2023-05-05T08:54:33.996Z,28.65
2023-05-05T08:55:33.984Z,34.96
2023-05-05T08:56:34.005Z,38.49
2023-05-05T08:57:33.994Z,29.28
2023-05-05T08:58:33.961Z,21.08
2023-05-05T08:59:33.990Z,24.62
2023-05-05T09:00:34.011Z,33.17
2023-05-05T09:01:34.127Z,21.55
2023-05-05T09:02:34.102Z,19.37
2023-05-05T09:03:34.101Z,22.10
2023-05-05T09:04:34.007Z,23.56
2023-05-05T09:05:33.896Z,25.42
2023-05-05T09:06:33.971Z,30.55
2023-05-05T09:07:33.886Z,26.65
2023-05-05T09:08:33.905Z,26.35
2023-05-05T09:09:34.133Z,25.63
2023-05-05T09:10:34.120Z,25.08
2023-05-05T09:11:34.264Z,26.37
2023-05-05T09:12:34.180Z,23.80
2023-05-05T09:13:34.207Z,25.76
2023-05-05T09:14:34.266Z,37.55
2023-05-05T09:15:34.300Z,38.27
2023-05-05T09:16:34.360Z,38.86
2023-05-05T09:17:34.395Z,35.71
2023-05-05T09:18:34.411Z,25.11
2023-05-05T09:19:34.607Z,24.72
2023-05-05T09:20:34.532Z,25.00
2023-05-05T09:21:34.590Z,27.22
2023-05-05T09:22:34.662Z,29.21
2023-05-05T09:23:34.726Z,27.22
2023-05-05T09:24:34.806Z,29.35
2023-05-05T09:25:34.888Z,37.53
2023-05-05T09:26:34.938Z,36.07
2023-05-05T09:27:35.011Z,30.47
2023-05-05T09:28:35.077Z,30.87
2023-05-05T09:29:35.127Z,34.30
2023-05-05T09:30:35.111Z,33.05
2023-05-05T09:31:35.113Z,27.86
2023-05-05T09:32:35.120Z,25.81
2023-05-05T09:33:35.120Z,39.38
2023-05-05T09:34:35.168Z,45.40
2023-05-05T09:35:35.182Z,47.03
2023-05-05T09:36:35.130Z,39.85
2023-05-05T09:37:35.149Z,37.71
2023-05-05T09:38:35.147Z,30.22
2023-05-05T09:39:35.128Z,23.93
2023-05-05T09:40:35.130Z,24.15
2023-05-05T09:41:35.133Z,24.10
2023-05-05T09:42:35.141Z,24.70
2023-05-05T09:43:35.190Z,28.71
2023-05-05T09:44:35.132Z,35.72
2023-05-05T09:45:35.149Z,34.29
2023-05-05T09:46:35.134Z,42.05
2023-05-05T09:47:35.302Z,45.83
2023-05-05T09:49:35.127Z,49.35
2023-05-05T09:50:35.121Z,54.09
2023-05-05T09:51:35.220Z,55.58
2023-05-05T09:52:35.118Z,58.52
2023-05-05T09:53:35.125Z,65.82
2023-05-05T09:54:35.151Z,75.40
2023-05-05T09:55:35.158Z,78.59
2023-05-05T09:56:35.161Z,79.70
2023-05-05T09:57:35.158Z,89.40
2023-05-05T09:58:35.192Z,107.58
2023-05-05T09:59:35.195Z,122.74
2023-05-05T10:00:35.210Z,137.42
2023-05-05T10:01:35.359Z,148.99
2023-05-05T10:02:35.388Z,158.64
2023-05-05T10:03:35.338Z,158.97
2023-05-05T10:04:35.360Z,160.80
2023-05-05T10:05:35.331Z,159.38
2023-05-05T10:06:35.377Z,162.68
2023-05-05T10:07:35.322Z,169.84
2023-05-05T10:08:35.315Z,182.40
2023-05-05T10:09:35.338Z,200.60
2023-05-05T10:10:35.314Z,206.14
2023-05-05T10:11:35.318Z,208.39
2023-05-05T10:12:35.308Z,212.67
2023-05-05T10:13:35.289Z,216.49
2023-05-05T10:14:35.254Z,216.60
2023-05-05T10:15:35.281Z,217.32
2023-05-05T10:16:35.286Z,218.13
2023-05-05T10:17:35.240Z,220.37
2023-05-05T10:18:35.263Z,224.32
2023-05-05T10:19:35.201Z,225.04
2023-05-05T10:20:35.164Z,225.75
2023-05-05T10:21:35.161Z,226.36
2023-05-05T10:22:35.161Z,226.56
2023-05-05T10:23:35.197Z,223.48
2023-05-05T10:24:35.134Z,216.82
2023-05-05T10:25:35.139Z,213.76
2023-05-05T10:26:35.124Z,210.39
2023-05-05T10:27:35.104Z,208.50
2023-05-05T10:28:35.118Z,208.03
2023-05-05T10:29:35.106Z,214.97
2023-05-05T10:30:35.099Z,183.50
2023-05-05T10:31:35.112Z,165.16
2023-05-05T10:33:36.117Z,155.36
2023-05-05T10:34:35.135Z,158.10
2023-05-05T10:35:35.054Z,160.10
2023-05-05T10:36:35.062Z,135.87
2023-05-05T10:37:35.026Z,132.36
2023-05-05T10:38:35.049Z,147.68
2023-05-05T10:39:35.099Z,162.80
2023-05-05T10:40:35.101Z,177.48
2023-05-05T10:41:35.099Z,185.82
2023-05-05T10:42:35.135Z,194.76
2023-05-05T10:43:35.133Z,202.39
2023-05-05T10:44:35.137Z,207.19
2023-05-05T10:45:35.340Z,206.95
2023-05-05T10:46:35.386Z,202.40
2023-05-05T10:47:35.220Z,201.37
2023-05-05T10:48:35.254Z,169.00
2023-05-05T10:49:35.250Z,161.64
2023-05-05T10:50:35.232Z,130.21
2023-05-05T10:51:40.093Z,130.98
2023-05-05T10:52:36.255Z,131.51
2023-05-05T10:53:35.366Z,133.04
2023-05-05T10:54:37.156Z,122.79
2023-05-05T10:55:35.391Z,110.77
2023-05-05T10:56:35.250Z,108.73
2023-05-05T10:57:35.257Z,110.79
2023-05-05T10:58:47.122Z,116.54
2023-05-05T10:59:36.196Z,116.72
2023-05-05T11:00:35.163Z,119.02
2023-05-05T11:01:35.328Z,127.72
2023-05-05T11:02:35.210Z,141.66
2023-05-05T11:03:35.138Z,141.93
2023-05-05T11:04:35.086Z,130.96
2023-05-05T11:05:35.073Z,129.09
2023-05-05T11:06:35.055Z,137.74
2023-05-05T11:07:35.051Z,140.83
2023-05-05T11:08:35.025Z,127.11
2023-05-05T11:09:35.017Z,124.60
2023-05-05T11:10:35.006Z,127.39
2023-05-05T11:11:35.099Z,128.74
2023-05-05T11:12:36.114Z,132.83
2023-05-05T11:13:34.956Z,127.38
2023-05-05T11:14:34.932Z,127.43
2023-05-05T11:15:34.932Z,127.66
2023-05-05T11:16:34.977Z,128.46
2023-05-05T11:17:34.909Z,129.11
2023-05-05T11:18:34.865Z,123.02
2023-05-05T11:19:34.872Z,107.66
2023-05-05T11:20:34.834Z,99.66
2023-05-05T11:21:34.819Z,92.53
2023-05-05T11:22:34.797Z,88.21
2023-05-05T11:23:34.776Z,85.61
2023-05-05T11:24:34.763Z,79.38
2023-05-05T11:25:34.803Z,73.18
2023-05-05T11:26:34.703Z,72.82
2023-05-05T11:27:34.762Z,72.02
2023-05-05T11:28:34.676Z,68.91
2023-05-05T11:29:34.677Z,63.30
2023-05-05T11:30:34.646Z,60.50
2023-05-05T11:31:34.758Z,58.99
2023-05-05T11:32:34.681Z,57.73
2023-05-05T11:33:34.609Z,54.85
2023-05-05T11:34:34.598Z,53.80
2023-05-05T11:35:34.577Z,53.48
2023-05-05T11:36:34.558Z,53.50
2023-05-05T11:37:34.559Z,54.24
2023-05-05T11:38:34.547Z,56.34
2023-05-05T11:39:34.516Z,59.26
2023-05-05T11:40:34.492Z,53.78
2023-05-05T11:41:34.462Z,55.27
2023-05-05T11:42:34.464Z,57.88
2023-05-05T11:43:34.513Z,63.27
2023-05-05T11:44:34.421Z,74.75
2023-05-05T11:45:34.423Z,77.45
2023-05-05T11:46:34.403Z,76.99
2023-05-05T11:47:34.427Z,77.07
2023-05-05T11:48:34.434Z,75.39
2023-05-05T11:49:34.469Z,71.97
2023-05-05T11:50:34.539Z,71.83
2023-05-05T11:51:34.537Z,66.61
2023-05-05T11:52:34.597Z,65.54
2023-05-05T11:53:34.579Z,64.19
2023-05-05T11:54:34.540Z,65.84
2023-05-05T11:55:34.553Z,67.22
2023-05-05T11:56:34.505Z,70.23
2023-05-05T11:57:34.486Z,76.60
2023-05-05T11:58:34.479Z,80.14
2023-05-05T11:59:34.521Z,81.87
2023-05-05T12:00:34.467Z,85.43
2023-05-05T12:01:34.465Z,90.07
2023-05-05T12:02:34.505Z,90.23
2023-05-05T12:03:34.533Z,91.05
2023-05-05T12:04:34.478Z,92.99
2023-05-05T12:05:36.729Z,95.00
2023-05-05T12:06:34.406Z,95.15
2023-05-05T12:07:34.414Z,98.67
2023-05-05T12:08:34.375Z,103.00
2023-05-05T12:09:34.370Z,105.41
2023-05-05T12:10:34.347Z,103.07
2023-05-05T12:11:34.325Z,100.52
2023-05-05T12:12:34.341Z,107.72
2023-05-05T12:13:34.278Z,107.20
2023-05-05T12:14:34.322Z,107.88
2023-05-05T12:15:34.324Z,106.25
2023-05-05T12:16:34.252Z,105.89
2023-05-05T12:17:34.234Z,108.75
2023-05-05T12:18:34.208Z,107.07
2023-05-05T12:19:34.189Z,100.24
2023-05-05T12:20:34.184Z,93.83
2023-05-05T12:21:34.153Z,92.17
2023-05-05T12:22:34.125Z,93.53
2023-05-05T12:23:34.117Z,94.89
2023-05-05T12:24:34.086Z,92.67
2023-05-05T12:25:34.085Z,87.62
2023-05-05T12:26:34.050Z,86.22
2023-05-05T12:27:34.056Z,85.09
2023-05-05T12:28:34.021Z,85.17
2023-05-05T12:29:34.003Z,86.05
2023-05-05T12:30:34.044Z,88.37
2023-05-05T12:31:34.163Z,90.62
2023-05-05T12:32:33.997Z,91.54
2023-05-05T12:33:33.935Z,95.72
2023-05-05T12:34:33.911Z,93.23
2023-05-05T12:35:33.913Z,88.55
2023-05-05T12:36:33.863Z,89.17
2023-05-05T12:37:33.849Z,86.11
2023-05-05T12:38:33.842Z,83.48
2023-05-05T12:39:33.854Z,84.90
2023-05-05T12:40:33.879Z,89.51
2023-05-05T12:41:33.878Z,88.32
2023-05-05T12:42:33.890Z,86.34